Time;durP1;ratioP1;P1;durP2;ratioP2;P2;SDS_P1;SDS_P2;PMS_P1;PMS_P2;Temp;Humidity;BMP_temperature;BMP_pressure;BME280_temperature;BME280_humidity;BME280_pressure;Samples;Min_cycle;Max_cycle;Signal;HPM_P1;HPM_P2
2024/04/05 00:01:07;;;;;;;28.58;5.43;;;11.20;99.90;;;;;;5049346;28;20037;-78
2024/04/05 00:03:33;;;;;;;29.45;5.90;;;11.20;99.90;;;;;;5049173;28;20413;-75
2024/04/05 00:05:58;;;;;;;27.65;5.13;;;11.30;99.90;;;;;;5050426;28;20040;-76
2024/04/05 00:08:25;;;;;;;32.58;6.03;;;11.30;99.90;;;;;;5049588;28;20040;-77
2024/04/05 00:10:51;;;;;;;27.95;4.75;;;11.30;99.90;;;;;;5046375;28;20037;-76
2024/04/05 00:13:17;;;;;;;31.73;5.20;;;11.30;99.90;;;;;;5047056;28;20040;-76
2024/04/05 00:15:43;;;;;;;28.27;4.65;;;11.30;99.90;;;;;;5049743;28;20040;-76
2024/04/05 00:18:09;;;;;;;32.13;4.85;;;11.30;99.90;;;;;;5049549;28;20036;-76
2024/04/05 00:20:34;;;;;;;29.00;5.07;;;11.30;99.90;;;;;;5048946;28;20072;-76
2024/04/05 00:23:00;;;;;;;36.00;5.43;;;11.30;99.90;;;;;;5045670;28;20048;-76
2024/04/05 00:25:26;;;;;;;26.55;4.53;;;11.30;99.90;;;;;;5052842;28;20048;-77
2024/04/05 00:27:54;;;;;;;32.50;5.35;;;11.30;99.90;;;;;;5053089;28;20547;-75
2024/04/05 00:30:20;;;;;;;30.52;4.78;;;11.20;99.90;;;;;;5046471;28;20057;-76
2024/04/05 00:32:45;;;;;;;32.15;6.00;;;11.30;99.90;;;;;;5054115;28;20445;-76
2024/04/05 00:35:11;;;;;;;31.58;5.40;;;11.20;99.90;;;;;;5053747;28;20033;-76
2024/04/05 00:37:36;;;;;;;24.23;4.85;;;11.30;99.90;;;;;;5053822;28;20029;-76
2024/04/05 00:40:02;;;;;;;24.80;4.55;;;11.20;99.90;;;;;;5053404;28;20393;-78
2024/04/05 00:42:28;;;;;;;28.13;5.55;;;11.20;99.90;;;;;;5053615;28;20033;-75
2024/04/05 00:44:54;;;;;;;29.92;5.30;;;11.10;99.90;;;;;;5052251;28;20028;-76
2024/04/05 00:47:20;;;;;;;22.35;4.93;;;11.10;99.90;;;;;;5052117;28;20127;-76
2024/04/05 00:49:47;;;;;;;27.60;4.40;;;11.00;99.90;;;;;;5052620;28;20405;-76
2024/04/05 00:52:13;;;;;;;20.42;5.00;;;11.10;99.90;;;;;;5051449;28;20040;-79
2024/04/05 00:54:39;;;;;;;24.23;4.15;;;11.00;99.90;;;;;;5053739;28;20044;-77
2024/04/05 00:57:05;;;;;;;29.60;5.30;;;11.00;99.90;;;;;;5053380;28;20029;-78
2024/04/05 00:59:32;;;;;;;27.40;4.45;;;11.00;99.90;;;;;;5052449;28;20044;-78
2024/04/05 01:01:57;;;;;;;21.80;4.32;;;11.00;99.90;;;;;;5053725;28;20080;-76
2024/04/05 01:04:23;;;;;;;32.13;5.15;;;10.90;99.90;;;;;;5052313;28;20084;-76
2024/04/05 01:06:50;;;;;;;37.55;5.55;;;10.90;99.90;;;;;;5052072;28;20497;-77
2024/04/05 01:09:16;;;;;;;32.33;5.57;;;10.90;99.90;;;;;;5052974;28;20048;-76
2024/04/05 01:11:41;;;;;;;31.30;5.05;;;10.90;99.90;;;;;;5052466;28;20033;-76
2024/04/05 01:14:07;;;;;;;23.75;4.50;;;10.90;99.90;;;;;;5052178;28;20033;-77
2024/04/05 01:16:33;;;;;;;26.92;5.47;;;10.90;99.90;;;;;;5053038;28;20090;-76
2024/04/05 01:18:58;;;;;;;33.33;5.28;;;11.30;99.90;;;;;;5053400;28;20102;-75
2024/04/05 01:21:24;;;;;;;22.92;4.85;;;10.80;99.90;;;;;;5052800;28;20116;-76
2024/04/05 01:23:50;;;;;;;22.30;4.55;;;10.80;99.90;;;;;;5050134;28;20075;-77
2024/04/05 01:26:16;;;;;;;31.88;5.10;;;10.80;99.90;;;;;;5053024;28;20047;-76
2024/04/05 01:28:41;;;;;;;28.77;4.88;;;10.80;99.90;;;;;;5051951;28;20036;-80
2024/04/05 01:31:07;;;;;;;25.73;4.93;;;10.80;99.90;;;;;;5051624;28;20116;-76
2024/04/05 01:33:33;;;;;;;31.45;5.28;;;10.80;99.90;;;;;;5052678;28;20036;-75
2024/04/05 01:35:58;;;;;;;35.08;5.25;;;10.80;99.90;;;;;;5045127;28;20112;-76
2024/04/05 01:38:24;;;;;;;30.27;5.18;;;10.90;99.90;;;;;;5051809;28;20072;-77
2024/04/05 01:40:49;;;;;;;32.75;5.35;;;10.90;99.90;;;;;;5050624;28;20096;-75
2024/04/05 01:43:15;;;;;;;30.55;5.53;;;10.90;99.90;;;;;;5047048;28;20041;-76
2024/04/05 01:45:41;;;;;;;32.53;5.05;;;10.90;99.90;;;;;;5052978;28;20052;-76
2024/04/05 01:48:07;;;;;;;26.70;5.35;;;11.00;99.90;;;;;;5052365;28;20055;-76
2024/04/05 01:50:33;;;;;;;35.53;5.47;;;11.00;99.90;;;;;;5050598;28;20041;-76
2024/04/05 01:52:58;;;;;;;36.92;5.63;;;11.10;99.90;;;;;;5048708;28;20126;-78
2024/04/05 01:55:24;;;;;;;28.15;5.07;;;11.10;99.90;;;;;;5046103;28;20120;-75
2024/04/05 01:57:49;;;;;;;25.92;5.07;;;11.10;99.90;;;;;;5045821;28;20116;-75
2024/04/05 02:00:15;;;;;;;35.90;5.88;;;11.10;99.90;;;;;;5052401;28;20044;-76
2024/04/05 02:02:41;;;;;;;28.42;5.32;;;11.10;99.90;;;;;;5050167;28;20402;-76
2024/04/05 02:05:07;;;;;;;27.73;5.57;;;11.10;99.90;;;;;;5058286;28;20033;-77
2024/04/05 02:07:33;;;;;;;40.30;5.72;;;11.20;99.90;;;;;;5050987;28;20555;-76
2024/04/05 02:09:59;;;;;;;30.77;5.78;;;11.10;99.90;;;;;;5052127;28;20065;-77
2024/04/05 02:12:28;;;;;;;34.70;5.65;;;11.10;99.90;;;;;;5046331;28;20068;-77
2024/04/05 02:14:54;;;;;;;32.75;6.25;;;11.20;99.90;;;;;;5045153;28;20071;-75
2024/04/05 02:17:20;;;;;;;31.27;5.32;;;11.20;99.90;;;;;;5050808;28;21180;-76
2024/04/05 02:19:46;;;;;;;34.65;5.88;;;11.20;99.90;;;;;;5046160;28;20489;-76
2024/04/05 02:22:12;;;;;;;34.58;6.05;;;11.20;99.90;;;;;;5049342;28;20485;-76
2024/04/05 02:24:37;;;;;;;30.20;5.63;;;11.20;99.90;;;;;;5050646;28;20063;-76
2024/04/05 02:27:04;;;;;;;27.25;5.88;;;11.20;99.90;;;;;;5050985;28;20053;-78
2024/04/05 02:29:30;;;;;;;31.60;5.82;;;11.20;99.90;;;;;;5050476;28;20045;-78
2024/04/05 02:31:56;;;;;;;30.42;5.38;;;11.20;99.90;;;;;;5050576;28;20082;-76
2024/04/05 02:34:22;;;;;;;36.08;5.85;;;11.20;99.90;;;;;;5042615;28;20040;-76
2024/04/05 02:36:51;;;;;;;35.55;5.93;;;11.30;99.90;;;;;;5040195;28;20440;-77
2024/04/05 02:39:17;;;;;;;34.50;6.28;;;11.30;99.90;;;;;;5046917;28;20179;-74
2024/04/05 02:41:47;;;;;;;29.58;5.78;;;11.30;99.90;;;;;;5042135;28;20044;-76
2024/04/05 02:44:13;;;;;;;33.83;5.68;;;11.40;99.90;;;;;;5049152;28;20108;-75
2024/04/05 02:46:42;;;;;;;31.90;6.82;;;11.30;99.90;;;;;;5050743;28;20071;-76
2024/04/05 02:49:08;;;;;;;26.83;5.78;;;11.40;99.90;;;;;;5073750;22;20040;-77
2024/04/05 02:51:34;;;;;;;26.13;5.78;;;11.30;99.90;;;;;;5052233;28;20112;-77
2024/04/05 02:53:59;;;;;;;30.92;6.18;;;11.30;99.90;;;;;;5044958;28;20543;-77
2024/04/05 02:56:25;;;;;;;27.80;5.30;;;11.30;99.90;;;;;;5042668;28;20171;-77
2024/04/05 02:58:51;;;;;;;32.47;5.25;;;11.30;99.90;;;;;;5050639;28;20048;-77
2024/04/05 03:01:16;;;;;;;34.40;5.63;;;11.30;99.90;;;;;;5051883;28;20041;-77
2024/04/05 03:03:42;;;;;;;29.65;5.97;;;11.30;99.90;;;;;;5051582;28;20492;-77
2024/04/05 03:06:08;;;;;;;31.38;4.80;;;11.30;99.90;;;;;;5053323;28;20108;-77
2024/04/05 03:08:34;;;;;;;24.95;5.05;;;11.30;99.90;;;;;;5053144;28;20049;-77
2024/04/05 03:11:00;;;;;;;24.33;5.00;;;11.30;99.90;;;;;;5056417;28;20052;-78
2024/04/05 03:13:26;;;;;;;32.45;5.30;;;11.30;99.90;;;;;;5053382;28;20045;-77
2024/04/05 03:15:51;;;;;;;31.17;6.10;;;11.30;99.90;;;;;;5035653;28;20044;-77
2024/04/05 03:18:17;;;;;;;27.73;5.53;;;11.30;99.90;;;;;;5052034;28;20033;-76
2024/04/05 03:20:43;;;;;;;27.67;4.60;;;11.40;99.90;;;;;;5049899;28;20041;-77
2024/04/05 03:23:10;;;;;;;32.58;5.20;;;11.30;99.90;;;;;;5034059;28;20036;-77
2024/04/05 03:25:37;;;;;;;27.27;4.97;;;11.30;99.90;;;;;;5033526;28;20102;-76
2024/04/05 03:28:03;;;;;;;28.45;4.97;;;11.40;99.90;;;;;;5049191;28;20044;-77
2024/04/05 03:30:29;;;;;;;29.90;4.55;;;11.40;99.90;;;;;;5048462;28;20128;-77
2024/04/05 03:32:54;;;;;;;26.40;4.68;;;11.40;99.90;;;;;;5050677;28;20040;-77
2024/04/05 03:35:20;;;;;;;26.20;5.28;;;11.40;99.90;;;;;;5062734;28;20046;-77
2024/04/05 03:37:48;;;;;;;26.05;4.97;;;11.40;99.90;;;;;;5050880;28;20402;-77
2024/04/05 03:40:14;;;;;;;18.63;4.35;;;11.40;99.90;;;;;;5040936;28;20047;-77
2024/04/05 03:42:39;;;;;;;25.10;5.10;;;11.40;99.90;;;;;;5048821;28;20041;-77
2024/04/05 03:45:05;;;;;;;19.33;4.15;;;11.40;99.90;;;;;;5050766;28;20417;-77
2024/04/05 03:47:31;;;;;;;20.85;4.57;;;11.40;99.90;;;;;;5050178;28;20039;-77
2024/04/05 03:49:57;;;;;;;24.13;4.18;;;11.40;99.90;;;;;;5050494;28;20079;-77
2024/04/05 03:52:22;;;;;;;20.23;4.75;;;11.40;99.90;;;;;;5049456;28;20467;-77
2024/04/05 03:54:48;;;;;;;23.20;4.80;;;11.40;99.90;;;;;;5042959;28;20112;-76
2024/04/05 03:57:13;;;;;;;24.98;4.68;;;11.40;99.90;;;;;;5052899;28;20037;-77
2024/04/05 03:59:39;;;;;;;19.92;4.00;;;11.40;99.90;;;;;;5036353;28;20599;-77
2024/04/05 04:02:05;;;;;;;25.38;4.97;;;11.40;99.90;;;;;;5054455;28;20041;-77
2024/04/05 04:04:30;;;;;;;28.15;4.72;;;11.40;99.90;;;;;;5053869;28;20102;-77
2024/04/05 04:06:57;;;;;;;32.08;4.57;;;11.40;99.90;;;;;;5053669;28;20037;-77
2024/04/05 04:09:22;;;;;;;28.05;5.15;;;11.30;99.90;;;;;;5060630;28;20044;-77
2024/04/05 04:11:48;;;;;;;26.55;4.70;;;11.40;99.90;;;;;;5053277;28;20044;-77
2024/04/05 04:14:13;;;;;;;28.88;5.32;;;11.40;99.90;;;;;;5053484;28;20392;-77
2024/04/05 04:16:40;;;;;;;19.35;4.60;;;11.40;99.90;;;;;;5054558;28;20058;-77
2024/04/05 04:19:07;;;;;;;28.13;5.45;;;11.30;99.90;;;;;;5054662;28;20047;-77
2024/04/05 04:21:33;;;;;;;31.15;5.45;;;11.40;99.90;;;;;;5051710;28;20068;-77
2024/04/05 04:23:59;;;;;;;26.73;5.30;;;11.30;99.90;;;;;;5051827;28;20036;-77
2024/04/05 04:26:24;;;;;;;25.52;5.03;;;11.40;99.90;;;;;;5052373;28;20379;-77
2024/04/05 04:28:50;;;;;;;27.38;5.18;;;11.40;99.90;;;;;;5045680;28;20130;-77
2024/04/05 04:31:23;;;;;;;26.17;4.78;;;11.40;99.90;;;;;;5046865;28;20099;-77
2024/04/05 04:33:50;;;;;;;29.27;5.63;;;11.40;99.90;;;;;;5053270;28;20040;-76
2024/04/05 04:36:18;;;;;;;26.40;5.47;;;11.40;99.90;;;;;;5053699;28;20040;-77
2024/04/05 04:38:44;;;;;;;28.23;4.95;;;11.30;99.90;;;;;;5049348;28;20095;-78
2024/04/05 04:41:12;;;;;;;32.95;5.35;;;11.30;99.90;;;;;;5060018;28;20041;-77
2024/04/05 04:43:39;;;;;;;21.85;5.28;;;11.40;99.90;;;;;;5070659;28;20053;-77
2024/04/05 04:46:04;;;;;;;27.63;5.25;;;11.40;99.90;;;;;;5060449;28;20044;-77
2024/04/05 04:48:30;;;;;;;31.77;5.82;;;11.40;99.90;;;;;;5056047;28;20103;-77
2024/04/05 04:50:56;;;;;;;27.38;5.70;;;11.40;99.90;;;;;;5051762;28;20041;-77
2024/04/05 04:53:22;;;;;;;28.30;5.40;;;11.40;99.90;;;;;;5048121;28;20049;-77
2024/04/05 04:55:47;;;;;;;32.03;5.90;;;11.40;99.90;;;;;;5048465;28;20036;-77
2024/04/05 04:58:17;;;;;;;36.38;6.10;;;11.40;99.90;;;;;;5061758;28;20393;-78
2024/04/05 05:00:46;;;;;;;24.63;4.85;;;11.40;99.90;;;;;;5052402;28;20435;-78
2024/04/05 05:03:12;;;;;;;26.38;5.28;;;11.40;99.90;;;;;;5046284;28;20437;-78
2024/04/05 05:05:41;;;;;;;23.17;4.93;;;11.40;99.90;;;;;;5051142;28;20041;-78
2024/04/05 05:08:11;;;;;;;26.15;4.85;;;11.40;99.90;;;;;;5051583;28;20440;-78
2024/04/05 05:10:38;;;;;;;22.63;4.65;;;11.50;99.90;;;;;;5060522;28;20047;-78
2024/04/05 05:13:11;;;;;;;28.30;4.82;;;11.40;99.90;;;;;;5052986;28;20036;-78
2024/04/05 05:15:39;;;;;;;27.52;5.07;;;11.40;99.90;;;;;;5054415;28;20069;-78
2024/04/05 05:18:05;;;;;;;26.40;5.07;;;11.40;99.90;;;;;;5050168;28;20041;-78
2024/04/05 05:20:31;;;;;;;27.77;4.78;;;11.40;99.90;;;;;;5052220;28;20090;-78
2024/04/05 05:22:56;;;;;;;22.40;5.25;;;11.40;99.90;;;;;;5052880;28;20037;-78
2024/04/05 05:25:22;;;;;;;22.42;5.53;;;11.70;99.90;;;;;;5058760;28;20064;-78
2024/04/05 05:27:48;;;;;;;24.17;4.95;;;11.40;99.90;;;;;;5054683;28;20037;-79
2024/04/05 05:30:15;;;;;;;26.92;5.65;;;11.40;99.90;;;;;;5059060;28;20032;-78
2024/04/05 05:32:41;;;;;;;35.03;5.57;;;11.30;99.90;;;;;;5053345;28;20040;-78
2024/04/05 05:35:07;;;;;;;34.50;5.90;;;11.30;99.90;;;;;;5036552;28;20037;-78
2024/04/05 05:37:33;;;;;;;31.10;5.63;;;11.30;99.90;;;;;;5055883;28;20040;-78
2024/04/05 05:39:59;;;;;;;26.58;5.00;;;11.40;99.90;;;;;;5059485;28;20029;-78
2024/04/05 05:42:27;;;;;;;28.83;5.95;;;11.30;99.90;;;;;;5054178;28;20141;-78
2024/04/05 05:44:53;;;;;;;35.00;5.10;;;11.50;99.90;;;;;;5054336;28;20036;-78
2024/04/05 05:47:19;;;;;;;27.58;5.72;;;11.40;99.90;;;;;;5054940;28;20045;-78
2024/04/05 05:49:44;;;;;;;36.60;5.93;;;11.30;99.90;;;;;;5049197;28;20056;-78
2024/04/05 05:52:10;;;;;;;26.30;5.35;;;11.30;99.90;;;;;;5061552;28;20068;-78
2024/04/05 05:54:39;;;;;;;29.08;5.35;;;11.40;99.90;;;;;;5049329;28;20391;-78
2024/04/05 05:57:05;;;;;;;36.28;5.70;;;11.40;99.90;;;;;;5059383;28;20055;-78
2024/04/05 05:59:30;;;;;;;31.60;5.55;;;11.30;99.90;;;;;;5032943;28;20037;-78
2024/04/05 06:01:57;;;;;;;29.58;5.20;;;11.30;99.90;;;;;;5058637;28;20037;-78
2024/04/05 06:04:22;;;;;;;22.20;4.72;;;11.40;99.90;;;;;;5053272;28;20044;-78
2024/04/05 06:06:49;;;;;;;29.30;5.22;;;11.30;99.90;;;;;;5054338;28;20094;-78
2024/04/05 06:09:14;;;;;;;22.13;5.40;;;11.40;99.90;;;;;;5053918;28;20072;-79
2024/04/05 06:11:40;;;;;;;39.25;6.00;;;11.50;99.90;;;;;;5054408;28;20079;-78
2024/04/05 06:14:06;;;;;;;31.08;5.32;;;11.40;99.90;;;;;;5052202;28;20044;-79
2024/04/05 06:16:32;;;;;;;27.98;4.93;;;11.40;99.90;;;;;;5058721;28;20040;-78
2024/04/05 06:18:58;;;;;;;25.08;5.00;;;11.40;99.90;;;;;;5051955;28;20386;-79
2024/04/05 06:21:23;;;;;;;28.25;6.57;;;11.50;99.90;;;;;;5070249;28;20417;-79
2024/04/05 06:23:49;;;;;;;25.92;5.30;;;11.40;99.90;;;;;;5052652;28;20033;-79
2024/04/05 06:26:15;;;;;;;28.42;5.28;;;11.40;99.90;;;;;;5054099;28;20033;-79
2024/04/05 06:28:41;;;;;;;29.13;5.97;;;11.60;99.90;;;;;;5052146;28;20041;-79
2024/04/05 06:31:06;;;;;;;30.60;5.90;;;11.60;99.90;;;;;;5050078;28;20043;-79
2024/04/05 06:33:32;;;;;;;25.40;5.25;;;11.60;99.90;;;;;;5051044;28;20037;-79
2024/04/05 06:36:02;;;;;;;25.48;5.85;;;11.60;99.90;;;;;;5054689;28;20106;-79
2024/04/05 06:38:29;;;;;;;25.17;5.35;;;11.70;99.90;;;;;;5053059;28;20049;-78
2024/04/05 06:40:58;;;;;;;23.50;5.80;;;11.80;99.90;;;;;;5051308;28;20090;-78
2024/04/05 06:43:25;;;;;;;32.97;5.40;;;11.80;99.90;;;;;;5057677;28;20033;-79
2024/04/05 06:45:54;;;;;;;24.17;5.30;;;11.80;99.90;;;;;;5057528;28;20028;-79
2024/04/05 06:48:20;;;;;;;26.00;5.65;;;11.90;99.90;;;;;;5056628;28;20044;-80
2024/04/05 06:50:46;;;;;;;22.25;5.13;;;11.90;99.90;;;;;;5060221;28;20033;-79
2024/04/05 06:53:12;;;;;;;29.95;5.38;;;12.00;99.90;;;;;;5039390;28;20041;-79
2024/04/05 06:55:47;;;;;;;24.67;5.70;;;12.00;99.90;;;;;;5041118;28;20064;-78
2024/04/05 06:58:13;;;;;;;24.75;4.85;;;12.10;99.90;;;;;;5041491;28;20047;-78
2024/04/05 07:00:41;;;;;;;23.33;5.30;;;12.10;99.90;;;;;;5054176;28;20041;-79
2024/04/05 07:03:06;;;;;;;24.80;5.38;;;12.20;99.90;;;;;;5059465;28;20047;-79
2024/04/05 07:05:32;;;;;;;22.02;5.47;;;12.40;99.90;;;;;;5059314;28;20120;-79
2024/04/05 07:07:58;;;;;;;20.98;5.45;;;12.30;99.90;;;;;;5055857;28;20040;-79
2024/04/05 07:10:24;;;;;;;20.90;5.43;;;12.30;99.90;;;;;;5060134;28;20041;-77
2024/04/05 07:12:52;;;;;;;22.85;5.47;;;12.40;99.90;;;;;;5053751;28;20060;-78
2024/04/05 07:15:19;;;;;;;26.05;5.40;;;12.40;99.90;;;;;;5054798;28;20045;-78
2024/04/05 07:17:52;;;;;;;20.98;5.30;;;12.50;99.90;;;;;;5060386;28;20037;-78
2024/04/05 07:20:24;;;;;;;28.38;5.50;;;12.50;99.90;;;;;;5053172;28;20550;-78
2024/04/05 07:22:52;;;;;;;29.73;5.28;;;12.60;99.90;;;;;;5058339;28;20552;-79
2024/04/05 07:25:17;;;;;;;20.95;5.55;;;12.60;99.90;;;;;;5058818;28;20463;-78
2024/04/05 07:27:44;;;;;;;18.13;5.25;;;12.70;99.90;;;;;;5060264;28;20036;-79
2024/04/05 07:30:09;;;;;;;17.58;5.25;;;12.60;99.90;;;;;;5063080;28;20044;-78
2024/04/05 07:32:35;;;;;;;20.33;5.00;;;12.70;99.90;;;;;;5062305;28;20044;-78
2024/04/05 07:35:01;;;;;;;22.13;5.53;;;12.70;99.90;;;;;;5056584;28;20032;-78
2024/04/05 07:37:27;;;;;;;20.98;5.30;;;12.80;99.90;;;;;;5054219;28;20116;-78
2024/04/05 07:39:55;;;;;;;22.02;5.28;;;12.80;99.90;;;;;;5034533;28;20052;-79
2024/04/05 07:42:21;;;;;;;20.92;5.13;;;12.80;99.90;;;;;;5059031;28;20044;-78
2024/04/05 07:44:53;;;;;;;21.45;4.85;;;13.00;99.90;;;;;;5064936;28;20033;-79
2024/04/05 07:47:18;;;;;;;14.02;4.85;;;13.00;99.90;;;;;;5062452;28;20130;-78
2024/04/05 07:49:44;;;;;;;16.75;5.43;;;13.00;99.90;;;;;;5063493;28;20041;-78
2024/04/05 07:52:09;;;;;;;19.58;4.93;;;13.10;99.90;;;;;;5057993;28;20036;-79
2024/04/05 07:54:35;;;;;;;18.50;4.97;;;13.10;99.90;;;;;;5059763;28;20040;-79
2024/04/05 07:57:01;;;;;;;22.23;5.10;;;13.10;99.90;;;;;;5060303;28;20033;-79
2024/04/05 07:59:26;;;;;;;16.85;4.60;;;13.20;99.90;;;;;;5059189;28;20041;-78
2024/04/05 08:01:52;;;;;;;18.90;4.88;;;13.20;99.90;;;;;;5058558;28;20040;-79
2024/04/05 08:04:18;;;;;;;18.77;4.30;;;13.30;99.90;;;;;;5060600;28;20045;-79
2024/04/05 08:06:43;;;;;;;25.17;5.07;;;13.30;99.90;;;;;;5052273;28;20374;-79
2024/04/05 08:09:11;;;;;;;21.65;4.90;;;13.40;99.90;;;;;;5050760;28;20086;-78
2024/04/05 08:11:37;;;;;;;15.90;4.22;;;13.40;99.90;;;;;;5055673;28;20049;-78
2024/04/05 08:14:02;;;;;;;21.65;4.45;;;13.40;99.90;;;;;;5051949;28;20087;-78
2024/04/05 08:16:28;;;;;;;16.33;4.18;;;13.50;99.90;;;;;;5053138;28;20076;-78
2024/04/05 08:18:57;;;;;;;14.90;3.95;;;13.50;99.90;;;;;;5055061;28;20079;-78
2024/04/05 08:21:22;;;;;;;18.23;4.07;;;13.60;99.90;;;;;;5054968;28;20489;-78
2024/04/05 08:23:48;;;;;;;17.13;4.05;;;13.60;99.90;;;;;;5052902;28;20037;-78
2024/04/05 08:26:14;;;;;;;16.92;4.30;;;13.70;99.90;;;;;;5034680;28;20069;-78
2024/04/05 08:28:39;;;;;;;15.32;4.07;;;13.70;99.90;;;;;;5055671;28;20116;-79
2024/04/05 08:31:05;;;;;;;18.05;4.53;;;13.70;99.90;;;;;;5052403;28;20123;-78
2024/04/05 08:33:31;;;;;;;16.40;3.83;;;13.70;99.90;;;;;;5046771;28;20045;-78
2024/04/05 08:35:56;;;;;;;12.50;3.85;;;13.70;99.90;;;;;;5051572;28;20033;-78
2024/04/05 08:38:22;;;;;;;16.17;3.78;;;13.80;99.90;;;;;;5050824;28;20045;-78
2024/04/05 08:40:48;;;;;;;14.82;3.53;;;13.80;99.90;;;;;;5054277;28;20044;-78
2024/04/05 08:43:16;;;;;;;15.35;3.63;;;13.80;99.90;;;;;;5054497;28;20465;-78
2024/04/05 08:45:42;;;;;;;12.13;3.67;;;13.80;99.90;;;;;;5055272;28;20408;-78
2024/04/05 08:48:08;;;;;;;14.68;3.75;;;13.80;99.90;;;;;;5060460;22;20053;-78
2024/04/05 08:50:35;;;;;;;15.48;4.82;;;13.70;99.90;;;;;;4997476;28;20048;-78
2024/04/05 08:53:01;;;;;;;13.23;3.72;;;13.60;99.90;;;;;;4996141;28;20038;-75
2024/04/05 08:55:27;;;;;;;19.30;4.25;;;13.50;99.90;;;;;;5012213;28;20049;-77
2024/04/05 08:57:55;;;;;;;14.43;4.20;;;13.50;99.90;;;;;;4980702;28;20033;-77
2024/04/05 09:00:24;;;;;;;16.27;4.13;;;13.50;99.90;;;;;;5001572;28;20402;-78
2024/04/05 09:02:53;;;;;;;21.45;4.32;;;13.40;99.90;;;;;;5003019;28;20045;-77
2024/04/05 09:05:19;;;;;;;15.40;3.60;;;13.40;99.90;;;;;;4995304;28;20038;-77
2024/04/05 09:07:49;;;;;;;21.35;4.60;;;13.30;99.90;;;;;;5019632;28;20375;-77
2024/04/05 09:10:19;;;;;;;18.75;4.30;;;13.30;99.90;;;;;;5000156;28;20045;-79
2024/04/05 09:12:52;;;;;;;16.63;4.63;;;13.30;99.90;;;;;;5012457;28;20737;-78
2024/04/05 09:15:22;;;;;;;16.15;4.22;;;13.30;99.90;;;;;;4978887;28;20189;-77
2024/04/05 09:17:51;;;;;;;16.63;4.40;;;13.20;99.90;;;;;;4979797;28;20033;-78
2024/04/05 09:20:24;;;;;;;14.63;4.05;;;13.10;99.90;;;;;;4987651;28;20042;-77
2024/04/05 09:23:02;;;;;;;20.02;4.60;;;13.10;99.90;;;;;;4985848;28;20042;-77
2024/04/05 09:25:30;;;;;;;20.88;5.45;;;13.10;99.90;;;;;;5002840;28;20053;-77
2024/04/05 09:28:20;;;;;;;17.05;4.38;;;13.10;99.90;;;;;;4996497;28;20541;-77
2024/04/05 09:30:49;;;;;;;21.00;4.88;;;13.10;99.90;;;;;;4998383;28;20376;-78
2024/04/05 09:33:21;;;;;;;18.77;4.68;;;13.10;99.90;;;;;;4995592;28;20046;-78
2024/04/05 09:35:47;;;;;;;;;;;13.10;99.90;;;;;;4993608;28;20084;-78
2024/04/05 09:38:13;;;;;;;15.82;4.75;;;13.10;99.90;;;;;;4997157;28;19917;-79
2024/04/05 09:40:42;;;;;;;18.95;5.03;;;13.10;99.90;;;;;;4970218;28;20431;-78
2024/04/05 09:43:08;;;;;;;24.17;5.57;;;13.10;99.90;;;;;;4978753;28;20038;-78
2024/04/05 09:45:35;;;;;;;14.07;4.88;;;13.10;99.90;;;;;;4979277;28;20042;-75
2024/04/05 09:48:03;;;;;;;17.05;4.80;;;13.20;99.90;;;;;;4998831;28;20126;-76
2024/04/05 09:50:30;;;;;;;17.05;4.65;;;13.10;99.90;;;;;;4980051;28;20554;-77
2024/04/05 09:52:56;;;;;;;17.67;5.20;;;13.10;99.90;;;;;;4998329;28;20041;-77
2024/04/05 09:55:23;;;;;;;22.70;5.30;;;13.10;99.90;;;;;;5019024;28;20604;-77
2024/04/05 09:57:49;;;;;;;18.35;5.32;;;13.20;99.90;;;;;;5013725;28;20053;-77
2024/04/05 10:00:20;;;;;;;14.80;4.82;;;13.10;99.90;;;;;;4993425;28;20034;-77
2024/04/05 10:02:49;;;;;;;14.80;5.10;;;13.20;99.90;;;;;;4984048;28;20043;-77
2024/04/05 10:05:27;;;;;;;18.45;5.18;;;13.20;99.90;;;;;;4979048;28;20042;-76
2024/04/05 10:07:53;;;;;;;22.17;5.40;;;13.20;99.90;;;;;;4995207;28;20141;-76
2024/04/05 10:10:34;;;;;;;22.33;5.43;;;13.20;99.90;;;;;;5003079;28;20042;-76
2024/04/05 10:13:12;;;;;;;15.65;5.00;;;13.20;99.90;;;;;;5023372;28;20056;-77
2024/04/05 10:15:39;;;;;;;18.13;5.15;;;13.20;99.90;;;;;;4996434;28;20045;-76
2024/04/05 10:18:07;;;;;;;15.63;4.93;;;13.20;99.90;;;;;;5002060;28;20382;-76
2024/04/05 10:20:34;;;;;;;17.08;5.35;;;13.20;99.90;;;;;;4999706;28;20067;-75
2024/04/05 10:23:00;;;;;;;14.65;5.22;;;13.30;99.90;;;;;;4992326;28;20506;-76
2024/04/05 10:25:26;;;;;;;19.98;5.10;;;13.30;99.90;;;;;;4992672;28;20041;-76
2024/04/05 10:27:53;;;;;;;15.60;4.75;;;13.30;99.90;;;;;;5001622;28;20045;-76
2024/04/05 10:30:21;;;;;;;15.13;4.97;;;13.40;99.90;;;;;;5011751;28;20045;-76
2024/04/05 10:32:55;;;;;;;15.65;4.43;;;13.40;99.90;;;;;;5005844;28;20177;-77
2024/04/05 10:35:21;;;;;;;15.70;4.80;;;13.30;99.90;;;;;;4987893;28;20041;-77
2024/04/05 10:38:01;;;;;;;20.77;5.25;;;13.40;99.90;;;;;;5003717;28;20061;-77
2024/04/05 10:40:33;;;;;;;15.90;4.65;;;13.40;99.90;;;;;;5011454;28;20084;-77
2024/04/05 10:43:09;;;;;;;14.57;4.70;;;13.50;99.90;;;;;;5005792;28;20117;-77
2024/04/05 10:45:36;;;;;;;16.98;4.72;;;13.40;99.90;;;;;;4986746;28;20342;-78
2024/04/05 10:48:13;;;;;;;14.75;4.45;;;13.80;99.90;;;;;;4982686;28;20502;-77
2024/04/05 10:51:07;;;;;;;11.30;5.05;;;13.50;99.90;;;;;;4979856;28;20132;-77
2024/04/05 10:53:38;;;;;;;12.77;4.32;;;13.60;99.90;;;;;;4965050;28;20045;-77
2024/04/05 10:56:05;;;;;;;12.15;4.38;;;13.80;99.90;;;;;;4980366;28;20064;-77
2024/04/05 10:58:35;;;;;;;13.55;4.88;;;14.00;99.90;;;;;;4977357;28;20041;-77
2024/04/05 11:01:02;;;;;;;13.05;4.70;;;14.10;99.90;;;;;;4993404;28;20045;-78
2024/04/05 11:03:27;;;;;;;15.70;4.22;;;14.30;99.90;;;;;;4990713;28;20069;-76
2024/04/05 11:06:02;;;;;;;13.50;4.15;;;14.30;99.90;;;;;;5010973;28;20038;-76
2024/04/05 11:08:28;;;;;;;14.88;4.45;;;14.40;99.90;;;;;;4995295;28;20049;-77
2024/04/05 11:10:55;;;;;;;12.98;4.10;;;14.40;99.90;;;;;;4986170;28;20065;-76
2024/04/05 11:13:21;;;;;;;10.30;3.60;;;14.30;99.90;;;;;;4988380;28;20050;-76
2024/04/05 11:15:47;;;;;;;11.43;3.90;;;14.30;99.90;;;;;;4989824;28;20045;-76
2024/04/05 11:18:13;;;;;;;11.00;3.85;;;14.40;99.90;;;;;;4975529;28;20058;-78
2024/04/05 11:20:40;;;;;;;11.52;3.67;;;14.20;99.90;;;;;;4984975;28;20063;-80
2024/04/05 11:23:12;;;;;;;9.30;3.58;;;14.20;99.90;;;;;;4974953;28;20042;-80
2024/04/05 11:25:37;;;;;;;7.80;3.38;;;14.20;99.90;;;;;;4978756;28;20407;-80
2024/04/05 11:28:14;;;;;;;7.72;3.38;;;14.20;99.90;;;;;;4990228;28;20041;-79
2024/04/05 11:30:40;;;;;;;11.13;3.78;;;14.20;99.90;;;;;;4991889;28;20029;-79
2024/04/05 11:33:07;;;;;;;12.15;3.67;;;14.20;99.90;;;;;;4974288;28;20034;-79
2024/04/05 11:35:36;;;;;;;12.45;3.95;;;14.30;99.90;;;;;;4991641;28;20487;-79
2024/04/05 11:38:01;;;;;;;9.40;3.28;;;14.30;99.90;;;;;;4976379;28;20045;-79
2024/04/05 11:40:27;;;;;;;9.90;3.50;;;14.30;99.90;;;;;;4994364;28;20042;-79
2024/04/05 11:42:53;;;;;;;11.48;3.42;;;14.20;99.90;;;;;;4989224;28;20030;-80
2024/04/05 11:45:18;;;;;;;9.45;3.75;;;14.30;99.90;;;;;;4994820;28;20042;-79
2024/04/05 11:47:47;;;;;;;12.02;4.00;;;14.30;99.90;;;;;;4958812;28;20045;-79
2024/04/05 11:50:13;;;;;;;12.13;3.50;;;14.40;99.90;;;;;;4984741;28;20450;-78
2024/04/05 11:52:39;;;;;;;10.60;3.47;;;14.50;99.90;;;;;;4999862;28;20050;-78
2024/04/05 11:55:06;;;;;;;10.05;4.18;;;14.50;99.90;;;;;;4981589;28;20161;-80
2024/04/05 11:57:34;;;;;;;7.78;3.40;;;14.50;99.90;;;;;;4991672;28;20081;-80
2024/04/05 12:00:01;;;;;;;8.68;3.50;;;14.50;99.90;;;;;;5005636;28;20502;-79
2024/04/05 12:02:26;;;;;;;10.00;3.47;;;14.40;99.90;;;;;;4988230;28;20138;-79
2024/04/05 12:04:52;;;;;;;8.73;3.30;;;14.50;99.90;;;;;;4990642;28;20045;-78
2024/04/05 12:07:17;;;;;;;12.82;3.40;;;14.50;99.90;;;;;;4991491;28;20856;-79
2024/04/05 12:09:43;;;;;;;6.72;3.25;;;14.40;99.90;;;;;;5013883;28;20084;-78
2024/04/05 12:12:09;;;;;;;13.30;3.50;;;14.40;99.90;;;;;;5011317;28;20125;-78
2024/04/05 12:14:35;;;;;;;8.50;3.45;;;14.40;99.90;;;;;;4983558;28;20115;-77
2024/04/05 12:17:04;;;;;;;8.68;2.95;;;14.30;99.90;;;;;;4970809;28;20038;-76
2024/04/05 12:19:29;;;;;;;13.43;3.30;;;14.30;99.90;;;;;;4988770;28;20126;-76
2024/04/05 12:21:55;;;;;;;9.95;3.53;;;14.30;99.90;;;;;;4989542;28;20109;-76
2024/04/05 12:24:21;;;;;;;11.30;3.17;;;14.30;99.90;;;;;;5010151;28;20045;-77
2024/04/05 12:26:47;;;;;;;10.32;3.30;;;14.30;99.90;;;;;;5011736;28;20076;-76
2024/04/05 12:29:13;;;;;;;6.97;3.10;;;14.20;99.90;;;;;;4987668;28;20068;-77
2024/04/05 12:31:40;;;;;;;11.77;4.05;;;14.30;99.90;;;;;;4988394;28;20077;-77
2024/04/05 12:34:06;;;;;;;10.77;3.78;;;14.30;99.90;;;;;;4973299;28;20046;-77
2024/04/05 12:36:32;;;;;;;10.25;3.70;;;14.30;99.90;;;;;;4976822;28;20050;-77